Time;durP1;ratioP1;P1;durP2;ratioP2;P2;SDS_P1;SDS_P2;PMS_P1;PMS_P2;Temp;Humidity;BMP_temperature;BMP_pressure;BME280_temperature;BME280_humidity;BME280_pressure;Samples;Min_cycle;Max_cycle;Signal;HPM_P1;HPM_P2
2023/08/27 00:01:49;;;;;;;4.85;2.00;;;;;;;20.00;74.58;92354.72;2065112;69;20175;-86
2023/08/27 00:04:14;;;;;;;3.38;2.22;;;;;;;19.79;74.42;92347.88;2064367;69;20244;-87
2023/08/27 00:06:40;;;;;;;6.18;2.13;;;;;;;19.85;74.24;92341.56;2064602;69;20174;-87
2023/08/27 00:12:52;;;;;;;7.00;2.67;;;;;;;19.45;76.34;92322.13;2065558;69;20203;-84
2023/08/27 00:15:18;;;;;;;6.05;2.20;;;;;;;19.35;77.31;92324.03;2068206;69;20140;-86
2023/08/27 00:17:44;;;;;;;4.32;2.38;;;;;;;19.42;77.11;92323.47;2068850;69;20600;-86
2023/08/27 00:20:10;;;;;;;7.75;2.40;;;;;;;19.50;76.15;92317.94;2069092;69;20235;-86
2023/08/27 00:26:23;;;;;;;5.13;2.10;;;;;;;19.47;75.55;92313.63;2068216;69;20532;-85
2023/08/27 00:32:36;;;;;;;4.68;2.22;;;;;;;19.61;74.72;92296.09;2067985;69;20630;-85
2023/08/27 00:35:03;;;;;;;4.95;2.45;;;;;;;19.67;75.02;92278.34;2064590;69;20149;-85
2023/08/27 00:37:30;;;;;;;3.55;2.33;;;;;;;19.42;75.29;92286.38;2064553;69;20148;-86
2023/08/27 00:39:55;;;;;;;4.97;2.30;;;;;;;18.96;77.28;92274.66;2064777;69;20144;-86
2023/08/27 00:42:25;;;;;;;6.82;2.15;;;;;;;19.37;74.19;92279.13;2067644;69;20155;-88
2023/08/27 00:44:51;;;;;;;8.15;2.55;;;;;;;19.32;74.91;92268.31;2064695;69;20132;-85
2023/08/27 00:47:17;;;;;;;7.47;2.30;;;;;;;19.52;74.70;92269.47;2064596;69;20159;-84
2023/08/27 00:49:43;;;;;;;4.78;2.50;;;;;;;19.60;75.45;92271.03;2064307;69;20147;-82
2023/08/27 00:52:10;;;;;;;6.95;2.42;;;;;;;19.58;75.46;92273.84;2063860;69;20758;-84
2023/08/27 00:54:40;;;;;;;4.45;2.33;;;;;;;19.58;75.87;92279.56;2068123;69;20205;-85
2023/08/27 00:57:06;;;;;;;6.50;2.28;;;;;;;19.64;74.99;92279.72;2067763;69;20232;-84
2023/08/27 00:59:33;;;;;;;10.90;3.00;;;;;;;19.59;75.69;92276.03;2064696;69;20593;-84
2023/08/27 01:02:07;;;;;;;4.28;2.53;;;;;;;19.49;75.99;92273.69;2067677;69;20224;-83
2023/08/27 01:04:34;;;;;;;6.55;2.17;;;;;;;19.17;76.22;92262.28;2068040;69;20604;-84
2023/08/27 01:07:27;;;;;;;6.40;2.17;;;;;;;19.24;76.42;92271.69;2064564;69;20156;-84
2023/08/27 01:10:04;;;;;;;4.53;2.47;;;;;;;19.46;76.08;92292.16;2063664;69;20152;-85
2023/08/27 01:12:48;;;;;;;4.38;2.25;;;;;;;19.54;76.27;92285.91;2067935;69;20159;-84
2023/08/27 01:15:16;;;;;;;7.60;2.60;;;;;;;19.60;74.76;92274.63;2064355;69;20151;-83
2023/08/27 01:21:30;;;;;;;7.15;2.67;;;;;;;19.30;76.08;92246.16;2067982;69;20127;-86
2023/08/27 01:23:56;;;;;;;4.65;2.40;;;;;;;19.36;75.41;92228.44;2067483;69;20217;-85
2023/08/27 01:26:29;;;;;;;5.40;2.58;;;;;;;19.17;76.37;92224.47;2067880;69;20141;-84
2023/08/27 01:29:08;;;;;;;5.75;2.40;;;;;;;19.14;76.81;92211.56;2067650;69;20203;-83
2023/08/27 01:31:40;;;;;;;3.88;2.35;;;;;;;19.25;76.33;92207.53;2068656;69;20623;-84
2023/08/27 01:34:08;;;;;;;7.10;2.50;;;;;;;19.35;75.57;92195.59;2065104;69;20157;-83
2023/08/27 01:40:22;;;;;;;5.25;2.10;;;;;;;19.37;76.15;92189.94;2068427;69;20672;-83
2023/08/27 01:42:47;;;;;;;6.75;2.50;;;;;;;19.47;75.23;92201.53;2068309;69;20235;-85
2023/08/27 01:45:15;;;;;;;3.72;2.03;;;;;;;19.52;75.27;92214.50;2068603;69;20319;-84
2023/08/27 01:47:41;;;;;;;8.82;2.20;;;;;;;19.42;76.15;92220.72;2069726;69;20289;-87
2023/08/27 01:50:10;;;;;;;7.22;2.30;;;;;;;19.26;75.35;92212.56;2066319;69;20662;-87
2023/08/27 01:52:36;;;;;;;5.20;2.60;;;;;;;19.12;76.19;92208.69;2068857;69;20160;-86
2023/08/27 01:55:04;;;;;;;5.07;2.38;;;;;;;18.82;77.94;92223.72;2068653;69;20151;-87
2023/08/27 01:57:31;;;;;;;5.97;2.30;;;;;;;18.43;81.51;92234.19;2065560;69;20148;-85
2023/08/27 01:59:56;;;;;;;3.35;2.15;;;;;;;18.64;79.79;92235.38;2067899;69;20226;-86
2023/08/27 02:02:22;;;;;;;4.50;2.42;;;;;;;18.98;78.32;92226.94;2067560;69;20569;-87
2023/08/27 02:04:48;;;;;;;7.28;2.30;;;;;;;19.10;76.56;92232.16;2068103;69;20202;-86
2023/08/27 02:07:17;;;;;;;4.22;2.30;;;;;;;19.05;76.56;92222.06;2064649;69;20624;-84
2023/08/27 02:09:44;;;;;;;7.70;2.30;;;;;;;18.94;77.13;92206.88;2065052;69;20144;-86
2023/08/27 02:16:04;;;;;;;4.85;2.05;;;;;;;19.04;76.94;92224.22;2066909;69;20668;-86
2023/08/27 02:18:30;;;;;;;5.18;2.20;;;;;;;19.16;76.37;92215.22;2067717;69;20612;-86
2023/08/27 02:21:00;;;;;;;5.45;2.38;;;;;;;19.08;77.02;92209.31;2067882;69;20203;-86
2023/08/27 02:23:25;;;;;;;4.57;2.40;;;;;;;19.16;77.00;92223.03;2064992;69;20176;-85
2023/08/27 02:25:51;;;;;;;4.55;2.33;;;;;;;18.88;76.81;92234.56;2064994;69;20715;-86
2023/08/27 02:28:16;;;;;;;3.78;2.40;;;;;;;18.77;77.96;92211.50;2062435;69;20149;-88
2023/08/27 02:30:51;;;;;;;6.88;2.22;;;;;;;18.75;78.06;92211.47;2064623;69;20175;-85
2023/08/27 02:33:17;;;;;;;5.65;2.13;;;;;;;18.79;77.99;92216.53;2068366;69;20652;-83
2023/08/27 02:35:42;;;;;;;2.88;2.22;;;;;;;18.64;78.01;92214.72;2065277;69;20157;-84
2023/08/27 02:38:08;;;;;;;3.00;2.20;;;;;;;18.70;77.14;92209.19;2068427;69;20159;-85
2023/08/27 02:40:33;;;;;;;8.07;2.53;;;;;;;18.80;76.62;92220.81;2068308;69;20159;-84
2023/08/27 02:43:03;;;;;;;3.08;2.22;;;;;;;18.87;76.25;92230.94;2064762;69;20148;-84
2023/08/27 02:45:29;;;;;;;3.28;2.17;;;;;;;18.93;76.04;92213.28;2068267;69;20615;-85
2023/08/27 02:47:54;;;;;;;4.07;2.20;;;;;;;18.85;76.72;92208.09;2065072;69;20193;-85
2023/08/27 02:50:20;;;;;;;4.93;2.88;;;;;;;18.78;75.93;92220.75;2068140;69;20136;-84
2023/08/27 02:52:46;;;;;;;4.78;2.42;;;;;;;18.83;76.86;92216.63;2064435;69;20681;-85
2023/08/27 02:58:59;;;;;;;4.63;2.25;;;;;;;19.03;76.45;92225.63;2068589;69;20651;-83
2023/08/27 03:01:25;;;;;;;3.78;2.40;;;;;;;18.92;77.62;92223.97;2065284;69;20164;-85
2023/08/27 03:03:51;;;;;;;6.57;1.83;;;;;;;18.96;77.32;92217.59;2069347;69;20652;-86
2023/08/27 03:06:18;;;;;;;5.20;2.20;;;;;;;18.82;77.14;92191.63;2066025;69;20144;-84
2023/08/27 03:08:44;;;;;;;4.65;2.28;;;;;;;19.07;76.52;92221.41;2068689;69;20139;-84
2023/08/27 03:11:10;;;;;;;6.05;2.28;;;;;;;19.08;76.13;92203.63;2065137;69;20144;-85
2023/08/27 03:17:23;;;;;;;4.03;2.35;;;;;;;19.03;76.78;92185.69;2068554;69;20162;-85
2023/08/27 03:19:48;;;;;;;5.18;2.28;;;;;;;18.99;76.69;92190.59;2069641;69;20140;-85
2023/08/27 03:22:14;;;;;;;4.68;2.30;;;;;;;19.04;76.78;92195.69;2069528;69;20238;-84
2023/08/27 03:24:39;;;;;;;3.90;2.42;;;;;;;18.99;77.33;92179.16;2070082;69;20152;-84
2023/08/27 03:27:06;;;;;;;4.63;2.33;;;;;;;18.98;76.82;92167.03;2066546;69;20166;-86
2023/08/27 03:29:32;;;;;;;5.18;2.30;;;;;;;19.14;75.13;92171.63;2066999;69;20165;-84
2023/08/27 03:31:58;;;;;;;3.58;2.22;;;;;;;18.99;76.61;92170.63;2069769;69;20156;-85
2023/08/27 03:34:23;;;;;;;4.15;2.20;;;;;;;19.05;76.27;92159.31;2069622;69;20571;-84
2023/08/27 03:36:49;;;;;;;3.80;2.08;;;;;;;19.14;75.79;92145.97;2065960;69;20160;-84
2023/08/27 03:39:15;;;;;;;4.50;2.40;;;;;;;18.65;77.22;92144.91;2069237;69;20172;-83
2023/08/27 03:41:41;;;;;;;3.75;2.13;;;;;;;18.22;80.31;92146.78;2065382;69;20147;-85
2023/08/27 03:44:06;;;;;;;3.85;2.08;;;;;;;18.68;78.80;92152.09;2068668;69;20272;-83
2023/08/27 03:46:32;;;;;;;3.58;1.85;;;;;;;18.88;77.56;92158.28;2068177;69;20137;-83
2023/08/27 03:49:02;;;;;;;3.92;2.10;;;;;;;18.88;77.37;92160.41;2065219;69;20322;-85
2023/08/27 03:51:29;;;;;;;4.10;2.20;;;;;;;19.01;75.96;92165.69;2067900;69;20141;-85
2023/08/27 03:54:00;;;;;;;5.18;1.92;;;;;;;19.00;76.50;92155.66;2068620;69;20168;-85
2023/08/27 03:56:26;;;;;;;3.67;2.20;;;;;;;18.97;76.90;92162.75;2065411;69;20310;-86
2023/08/27 03:58:51;;;;;;;5.30;2.40;;;;;;;18.97;76.73;92167.72;2068529;69;20164;-85
2023/08/27 04:01:17;;;;;;;4.15;2.10;;;;;;;18.72;77.89;92161.47;2065115;69;20199;-85
2023/08/27 04:03:44;;;;;;;4.03;2.10;;;;;;;18.88;76.66;92174.66;2068311;69;20160;-85
2023/08/27 04:06:10;;;;;;;4.15;2.35;;;;;;;18.98;76.87;92177.72;2067589;69;20183;-86
2023/08/27 04:08:37;;;;;;;5.03;2.05;;;;;;;19.01;76.19;92174.25;2067786;69;20181;-84
2023/08/27 04:11:04;;;;;;;4.80;2.33;;;;;;;19.01;76.16;92168.53;2068601;69;20148;-85
2023/08/27 04:13:31;;;;;;;4.95;2.30;;;;;;;18.91;76.89;92171.16;2065861;69;20148;-85
2023/08/27 04:16:02;;;;;;;4.82;2.30;;;;;;;18.93;76.36;92171.22;2068327;69;20352;-85
2023/08/27 04:18:29;;;;;;;5.10;1.95;;;;;;;19.00;76.22;92164.22;2064951;69;20144;-85
2023/08/27 04:20:55;;;;;;;4.40;2.20;;;;;;;19.02;75.89;92186.38;2065013;69;20734;-85
2023/08/27 04:23:21;;;;;;;3.35;2.30;;;;;;;19.02;76.71;92184.25;2067766;69;20160;-85
2023/08/27 04:25:48;;;;;;;4.43;2.17;;;;;;;18.99;75.48;92174.19;2068370;69;20155;-85
2023/08/27 04:28:14;;;;;;;5.95;2.20;;;;;;;19.03;76.67;92190.66;2068382;69;20140;-86
2023/08/27 04:30:40;;;;;;;4.18;2.22;;;;;;;18.90;77.90;92200.38;2062226;69;20149;-85
2023/08/27 04:33:07;;;;;;;5.10;2.20;;;;;;;18.90;77.23;92203.94;2064986;69;20171;-86
2023/08/27 04:35:33;;;;;;;4.07;2.33;;;;;;;18.96;76.84;92204.06;2064915;69;20233;-85
2023/08/27 04:38:00;;;;;;;6.50;2.22;;;;;;;19.05;76.75;92196.41;2064394;69;20156;-87
2023/08/27 04:40:25;;;;;;;5.50;2.38;;;;;;;18.59;77.45;92187.53;2064046;69;20274;-86
2023/08/27 04:42:51;;;;;;;6.53;2.38;;;;;;;18.59;78.38;92201.78;2064362;69;20152;-86
2023/08/27 04:45:17;;;;;;;5.07;2.20;;;;;;;18.75;77.13;92205.03;2067272;69;20160;-84
2023/08/27 04:47:51;;;;;;;5.38;2.30;;;;;;;18.77;77.12;92193.66;2064634;69;20148;-86
2023/08/27 04:50:17;;;;;;;3.47;2.30;;;;;;;18.86;77.09;92203.13;2067662;69;20145;-85
2023/08/27 04:52:43;;;;;;;3.58;2.58;;;;;;;18.87;77.04;92224.53;2067967;69;20152;-85
2023/08/27 04:58:56;;;;;;;3.28;2.08;;;;;;;18.89;77.15;92213.91;2068228;69;20139;-84
2023/08/27 05:01:22;;;;;;;4.55;2.70;;;;;;;18.93;76.58;92216.13;2064813;69;20148;-81
2023/08/27 05:03:48;;;;;;;8.88;2.70;;;;;;;18.36;79.21;92234.72;2064440;69;20149;-82
2023/08/27 05:10:01;;;;;;;2.58;2.30;;;;;;;18.41;79.34;92236.97;2068168;69;20195;-81
2023/08/27 05:12:28;;;;;;;4.32;2.40;;;;;;;18.69;78.68;92230.53;2067463;69;20587;-81
2023/08/27 05:14:53;;;;;;;5.00;2.25;;;;;;;18.76;77.53;92227.16;2064619;69;20172;-80
2023/08/27 05:17:19;;;;;;;4.28;2.20;;;;;;;18.78;74.76;92257.84;2067494;69;20253;-80
2023/08/27 05:19:45;;;;;;;4.28;2.03;;;;;;;18.57;77.40;92247.34;2067526;69;20259;-80
2023/08/27 05:22:10;;;;;;;4.72;2.33;;;;;;;18.70;77.99;92232.00;2064602;69;20133;-79
2023/08/27 05:28:23;;;;;;;3.05;2.20;;;;;;;18.40;78.75;92255.47;2067371;69;20163;-80
2023/08/27 05:30:49;;;;;;;5.03;2.25;;;;;;;18.58;78.36;92225.97;2067488;69;20172;-82
2023/08/27 05:33:14;;;;;;;3.85;2.65;;;;;;;18.65;78.38;92233.28;2068156;69;20229;-79
2023/08/27 05:35:40;;;;;;;5.57;2.33;;;;;;;18.67;77.52;92242.59;2068043;69;20179;-82
2023/08/27 05:38:05;;;;;;;3.20;2.20;;;;;;;18.24;79.67;92238.00;2064741;69;20668;-80
2023/08/27 05:40:31;;;;;;;3.53;2.28;;;;;;;18.51;78.48;92223.00;2061684;69;20604;-83
2023/08/27 05:42:57;;;;;;;4.53;2.08;;;;;;;18.03;80.04;92228.94;2064673;69;20155;-80
2023/08/27 05:45:23;;;;;;;3.45;2.20;;;;;;;18.33;79.95;92236.09;2068007;69;20167;-80
2023/08/27 05:47:48;;;;;;;5.55;2.63;;;;;;;18.57;77.82;92227.38;2068063;69;20137;-81
2023/08/27 05:50:14;;;;;;;4.07;2.80;;;;;;;18.69;77.31;92219.13;2064685;69;20669;-81
2023/08/27 05:56:28;;;;;;;8.02;5.25;;;;;;;18.52;78.74;92249.38;2067866;69;20229;-79
2023/08/27 05:58:54;;;;;;;7.68;4.00;;;;;;;18.26;79.88;92229.50;2064244;69;20152;-81
2023/08/27 06:01:20;;;;;;;4.18;3.30;;;;;;;18.15;80.97;92227.81;2064247;69;20160;-80
2023/08/27 06:03:45;;;;;;;3.55;2.50;;;;;;;18.16;80.01;92240.63;2064494;69;20168;-80
2023/08/27 06:06:11;;;;;;;3.50;2.60;;;;;;;18.23;78.81;92230.81;2064569;69;20628;-80
2023/08/27 06:08:37;;;;;;;4.63;3.05;;;;;;;18.46;79.49;92244.25;2067244;69;20141;-80
2023/08/27 06:11:04;;;;;;;3.58;2.40;;;;;;;18.51;78.70;92257.19;2067435;69;20172;-80
2023/08/27 06:13:30;;;;;;;5.38;2.83;;;;;;;18.54;78.66;92250.13;2064612;69;20606;-78
2023/08/27 06:15:56;;;;;;;6.00;2.80;;;;;;;18.56;79.35;92252.31;2067621;69;20140;-79
2023/08/27 06:18:22;;;;;;;3.72;2.65;;;;;;;18.67;78.36;92239.03;2064953;69;20153;-81
2023/08/27 06:20:48;;;;;;;4.35;2.65;;;;;;;18.49;78.61;92251.44;2068372;69;20141;-80
2023/08/27 06:23:15;;;;;;;5.07;3.10;;;;;;;18.05;80.18;92239.63;2068180;69;20197;-80
2023/08/27 06:25:41;;;;;;;3.60;2.67;;;;;;;18.40;80.19;92246.22;2067832;69;20497;-80
2023/08/27 06:28:07;;;;;;;4.43;2.65;;;;;;;18.67;78.39;92244.72;2064857;69;20173;-80
2023/08/27 06:30:33;;;;;;;4.75;2.30;;;;;;;18.78;78.90;92238.63;2064856;69;20145;-81
2023/08/27 06:33:02;;;;;;;4.88;2.30;;;;;;;18.53;78.38;92251.53;2064910;69;20591;-80
2023/08/27 06:35:28;;;;;;;4.90;2.40;;;;;;;18.69;76.46;92256.19;2067613;69;20295;-80
2023/08/27 06:37:53;;;;;;;3.15;2.53;;;;;;;18.34;79.80;92263.16;2067552;69;20560;-80
2023/08/27 06:40:19;;;;;;;7.93;2.90;;;;;;;18.61;79.04;92262.41;2064850;69;20141;-80
2023/08/27 06:42:45;;;;;;;4.80;2.80;;;;;;;18.81;78.51;92247.94;2065008;69;20157;-82
2023/08/27 06:45:16;;;;;;;4.70;2.90;;;;;;;19.06;77.44;92266.34;2065113;69;20520;-80
2023/08/27 06:47:43;;;;;;;5.85;2.65;;;;;;;19.08;76.74;92259.94;2068287;69;20152;-81
2023/08/27 06:50:09;;;;;;;5.50;2.92;;;;;;;18.87;78.03;92268.03;2062066;69;20163;-80
2023/08/27 06:52:34;;;;;;;7.18;3.22;;;;;;;18.79;78.02;92267.84;2067855;69;20137;-80
2023/08/27 06:55:01;;;;;;;3.85;2.70;;;;;;;18.78;79.03;92252.88;2064884;69;20153;-80
2023/08/27 06:57:26;;;;;;;3.17;2.47;;;;;;;19.27;77.12;92250.38;2064913;69;20160;-80
2023/08/27 06:59:53;;;;;;;3.17;2.40;;;;;;;19.16;77.21;92258.00;2067770;69;20149;-80
2023/08/27 07:02:20;;;;;;;6.20;2.40;;;;;;;19.55;76.17;92248.09;2067780;69;20143;-80
2023/08/27 07:04:46;;;;;;;4.80;2.50;;;;;;;19.84;74.86;92237.28;2067802;69;20164;-80
2023/08/27 07:07:14;;;;;;;3.80;2.60;;;;;;;20.24;71.67;92239.44;2068451;69;20144;-82
2023/08/27 07:09:40;;;;;;;4.35;2.50;;;;;;;20.20;72.71;92230.78;2062299;69;20141;-81
2023/08/27 07:12:06;;;;;;;2.72;2.17;;;;;;;20.40;71.93;92234.00;2068235;69;20172;-81
2023/08/27 07:14:32;;;;;;;2.50;1.90;;;;;;;20.34;71.29;92236.75;2064999;69;20145;-81
2023/08/27 07:21:06;;;;;;;2.80;1.60;;;;;;;20.52;70.17;92237.06;2068267;69;20178;-83
2023/08/27 07:23:32;;;;;;;2.58;1.60;;;;;;;20.81;69.25;92229.69;2064894;69;20168;-82
2023/08/27 07:25:57;;;;;;;3.10;1.85;;;;;;;20.93;70.38;92234.84;2064909;69;20183;-82
2023/08/27 07:28:23;;;;;;;3.88;1.73;;;;;;;20.78;71.17;92236.78;2066854;69;20156;-82
2023/08/27 07:30:50;;;;;;;3.67;1.63;;;;;;;21.08;68.40;92221.50;2068115;69;20198;-81
2023/08/27 07:33:15;;;;;;;3.45;1.42;;;;;;;20.98;68.21;92230.66;2068319;69;20186;-81
2023/08/27 07:35:41;;;;;;;4.78;1.70;;;;;;;20.04;72.20;92234.81;2067070;69;20160;-81
2023/08/27 07:38:07;;;;;;;2.72;1.70;;;;;;;20.75;69.74;92240.31;2067175;69;20172;-81
2023/08/27 07:40:36;;;;;;;3.70;1.67;;;;;;;20.71;69.91;92252.41;2067349;69;20172;-82
2023/08/27 07:43:03;;;;;;;3.85;1.50;;;;;;;20.63;69.69;92246.56;2064194;69;20145;-82
2023/08/27 07:45:30;;;;;;;4.25;1.60;;;;;;;20.69;70.37;92237.34;2064633;69;20187;-83
2023/08/27 07:47:55;;;;;;;2.58;1.60;;;;;;;20.95;67.06;92237.06;2064944;69;20160;-82
2023/08/27 07:50:21;;;;;;;2.83;1.63;;;;;;;20.77;69.32;92237.50;2065017;69;20210;-82
2023/08/27 07:52:48;;;;;;;3.80;1.50;;;;;;;20.99;68.52;92231.38;2064871;69;20147;-81
2023/08/27 07:55:14;;;;;;;2.00;1.50;;;;;;;21.14;69.54;92246.63;2067774;69;20151;-82
2023/08/27 07:57:40;;;;;;;4.45;1.42;;;;;;;21.08;69.70;92255.84;2068356;69;20148;-82
2023/08/27 08:00:06;;;;;;;2.08;1.58;;;;;;;20.35;70.51;92243.22;2068488;69;20280;-82
2023/08/27 08:02:40;;;;;;;4.45;1.58;;;;;;;20.63;69.03;92245.84;2068444;69;20247;-82
2023/08/27 08:05:07;;;;;;;2.05;1.05;;;;;;;21.01;68.59;92237.84;2068303;69;20254;-82
2023/08/27 08:07:35;;;;;;;1.27;1.10;;;;;;;21.19;67.96;92239.53;2068189;69;20141;-82
2023/08/27 08:10:01;;;;;;;1.65;1.10;;;;;;;21.34;67.33;92238.34;2068501;69;20148;-82
2023/08/27 08:12:26;;;;;;;1.33;0.90;;;;;;;21.23;67.58;92248.19;2068290;69;20144;-82
2023/08/27 08:14:52;;;;;;;2.08;1.00;;;;;;;20.70;67.27;92233.78;2068081;69;20594;-82
2023/08/27 08:17:21;;;;;;;1.65;1.05;;;;;;;20.47;67.87;92221.28;2068056;69;20149;-82
2023/08/27 08:19:48;;;;;;;1.17;1.00;;;;;;;20.68;67.30;92244.50;2068167;69;20166;-82
2023/08/27 08:22:13;;;;;;;1.77;1.10;;;;;;;20.82;68.85;92244.72;2068171;69;20145;-82
2023/08/27 08:24:39;;;;;;;2.47;1.13;;;;;;;20.89;69.43;92239.78;2064916;69;20117;-82
2023/08/27 08:27:06;;;;;;;3.47;1.17;;;;;;;20.95;70.88;92237.06;2068245;69;20164;-83
2023/08/27 08:29:34;;;;;;;1.45;1.00;;;;;;;20.91;70.96;92251.28;2068393;69;20144;-83
2023/08/27 08:32:01;;;;;;;1.40;0.95;;;;;;;20.72;72.48;92251.00;2068398;69;20240;-82
2023/08/27 08:34:30;;;;;;;2.42;1.02;;;;;;;20.47;72.49;92237.69;2068310;69;20543;-82
2023/08/27 08:36:56;;;;;;;2.17;0.95;;;;;;;20.46;72.32;92227.66;2068049;69;20175;-82
2023/08/27 08:39:23;;;;;;;2.65;1.05;;;;;;;20.51;72.47;92246.34;2068308;69;20156;-82
2023/08/27 08:42:00;;;;;;;1.77;1.02;;;;;;;20.56;72.02;92250.72;2068284;69;20630;-82
2023/08/27 08:44:39;;;;;;;2.00;0.95;;;;;;;20.48;72.97;92242.00;2068281;69;20255;-82
2023/08/27 08:47:08;;;;;;;1.92;1.00;;;;;;;20.52;72.80;92224.91;2068203;69;20228;-82
2023/08/27 08:49:35;;;;;;;3.90;1.10;;;;;;;20.67;72.05;92223.03;2068233;69;20144;-82
2023/08/27 08:55:56;;;;;;;2.80;1.17;;;;;;;20.63;72.10;92245.84;2068125;69;20127;-81
2023/08/27 08:58:25;;;;;;;3.15;1.38;;;;;;;20.42;72.59;92244.75;2068144;69;20152;-81
2023/08/27 09:00:51;;;;;;;2.95;1.10;;;;;;;20.49;71.91;92249.19;2068119;69;20165;-81
2023/08/27 09:03:19;;;;;;;3.17;1.10;;;;;;;20.70;70.61;92253.09;2068404;69;20146;-81
2023/08/27 09:05:46;;;;;;;2.35;1.25;;;;;;;20.37;72.37;92248.94;2068218;69;20132;-81
2023/08/27 09:08:13;;;;;;;1.23;1.13;;;;;;;20.54;72.06;92248.56;2068121;69;20147;-81
2023/08/27 09:10:39;;;;;;;1.10;1.00;;;;;;;20.74;69.85;92245.31;2068343;69;20151;-81
2023/08/27 09:13:05;;;;;;;1.27;1.05;;;;;;;20.68;71.23;92239.50;2068408;69;20240;-81
2023/08/27 09:15:31;;;;;;;1.95;1.10;;;;;;;20.56;70.94;92245.72;2068165;69;20145;-81
2023/08/27 09:17:56;;;;;;;2.20;1.10;;;;;;;20.55;71.98;92243.56;2068209;69;20488;-81
2023/08/27 09:20:23;;;;;;;1.27;1.10;;;;;;;20.51;71.17;92249.94;2068006;69;20145;-81
2023/08/27 09:22:49;;;;;;;1.80;1.20;;;;;;;20.31;70.73;92249.56;2067883;69;20164;-82
2023/08/27 09:25:14;;;;;;;2.17;1.30;;;;;;;20.08;73.00;92256.28;2068392;69;20592;-81
2023/08/27 09:27:41;;;;;;;2.28;1.30;;;;;;;20.15;72.79;92260.69;2064872;69;20141;-82
2023/08/27 09:30:08;;;;;;;4.57;1.40;;;;;;;20.22;72.25;92265.84;2068207;69;20188;-83
2023/08/27 09:32:34;;;;;;;2.17;1.20;;;;;;;20.41;70.84;92246.88;2068110;69;20145;-83
2023/08/27 09:35:01;;;;;;;6.00;1.40;;;;;;;20.30;72.76;92253.84;2067928;69;20141;-82
2023/08/27 09:37:28;;;;;;;2.53;1.20;;;;;;;20.26;73.12;92280.22;2068146;69;20242;-83
2023/08/27 09:39:54;;;;;;;1.77;1.40;;;;;;;20.06;73.52;92262.69;2068014;69;20231;-83
2023/08/27 09:42:21;;;;;;;2.30;1.08;;;;;;;20.37;71.01;92248.94;2068008;69;20140;-83
2023/08/27 09:44:51;;;;;;;1.10;1.00;;;;;;;20.51;70.35;92249.94;2068209;69;20187;-83
2023/08/27 09:47:30;;;;;;;1.52;1.00;;;;;;;20.40;70.07;92262.59;2067928;69;20137;-81
2023/08/27 09:49:56;;;;;;;3.10;1.20;;;;;;;20.39;70.46;92257.53;2068185;69;20164;-81
2023/08/27 09:52:26;;;;;;;1.75;1.20;;;;;;;20.26;72.73;92248.78;2068432;69;20143;-80
2023/08/27 09:54:52;;;;;;;2.03;1.20;;;;;;;20.47;72.73;92240.53;2069004;69;20152;-80
2023/08/27 09:57:19;;;;;;;5.13;1.17;;;;;;;20.57;72.48;92240.72;2069064;69;20194;-81
2023/08/27 09:59:46;;;;;;;1.92;1.10;;;;;;;20.54;72.95;92244.97;2068776;69;20629;-80
2023/08/27 10:02:15;;;;;;;2.15;1.00;;;;;;;20.61;72.43;92240.78;2068559;69;20167;-81
2023/08/27 10:04:53;;;;;;;1.90;1.50;;;;;;;20.69;72.61;92229.50;2068673;69;20176;-81
2023/08/27 10:07:19;;;;;;;3.25;1.10;;;;;;;20.74;72.12;92224.56;2068522;69;20531;-82
2023/08/27 10:09:52;;;;;;;1.45;1.17;;;;;;;20.69;70.39;92228.78;2068194;69;20188;-82
2023/08/27 10:12:19;;;;;;;3.40;1.08;;;;;;;20.73;71.78;92246.00;2067917;69;20152;-81
2023/08/27 10:14:46;;;;;;;1.75;1.00;;;;;;;20.60;72.07;92247.22;2068475;69;20159;-81
2023/08/27 10:17:12;;;;;;;1.92;0.93;;;;;;;20.67;70.92;92228.75;2068495;69;20172;-82
2023/08/27 10:19:38;;;;;;;2.35;1.08;;;;;;;20.58;72.05;92244.34;2068526;69;20152;-82
2023/08/27 10:22:06;;;;;;;1.10;0.98;;;;;;;20.54;71.67;92253.56;2068603;69;20310;-81
2023/08/27 10:24:33;;;;;;;2.05;1.02;;;;;;;20.29;73.04;92255.25;2068500;69;20148;-81
2023/08/27 10:27:00;;;;;;;0.88;0.60;;;;;;;20.31;73.19;92256.00;2068599;69;20148;-81
2023/08/27 10:29:28;;;;;;;1.77;0.80;;;;;;;20.28;72.32;92265.94;2069031;69;20160;-81
2023/08/27 10:31:54;;;;;;;3.22;1.00;;;;;;;20.12;70.30;92262.81;2069837;69;20137;-81
2023/08/27 10:34:23;;;;;;;0.98;0.80;;;;;;;20.13;71.34;92278.53;2068457;69;20610;-81
2023/08/27 10:36:51;;;;;;;2.78;1.30;;;;;;;20.15;71.16;92292.84;2068142;69;20140;-81
2023/08/27 10:39:20;;;;;;;2.88;1.27;;;;;;;20.08;71.94;92284.88;2068401;69;20140;-81
2023/08/27 10:41:46;;;;;;;3.97;1.10;;;;;;;19.97;70.35;92287.50;2068496;69;20160;-82
2023/08/27 10:44:19;;;;;;;1.10;1.00;;;;;;;19.83;71.82;92295.81;2068491;69;20202;-81
2023/08/27 10:47:03;;;;;;;;;;;;;;;19.81;71.62;92310.06;2068607;69;20168;-82
2023/08/27 10:49:36;;;;;;;2.20;1.00;;;;;;;19.28;71.61;92314.59;2068405;69;20457;-82
2023/08/27 10:52:14;;;;;;;0.85;0.82;;;;;;;19.54;69.95;92308.75;2068341;69;20214;-82
2023/08/27 10:54:40;;;;;;;1.33;0.82;;;;;;;19.37;70.05;92309.78;2068493;69;20676;-81
2023/08/27 10:57:22;;;;;;;1.83;0.90;;;;;;;19.39;69.83;92313.44;2068445;69;20155;-81
2023/08/27 10:59:48;;;;;;;1.33;0.95;;;;;;;19.21;70.58;92318.72;2068436;69;20144;-81
2023/08/27 11:02:16;;;;;;;1.67;0.80;;;;;;;19.39;70.75;92321.28;2068495;69;20155;-81
2023/08/27 11:04:54;;;;;;;1.30;0.80;;;;;;;19.37;68.56;92306.94;2068709;69;20585;-82
2023/08/27 11:07:22;;;;;;;1.65;0.70;;;;;;;19.23;69.58;92298.78;2068478;69;20223;-82
2023/08/27 11:09:56;;;;;;;1.70;1.00;;;;;;;19.47;70.67;92293.63;2068542;69;20617;-82
2023/08/27 11:16:15;;;;;;;1.13;0.93;;;;;;;19.51;70.06;92302.25;2068155;69;20147;-82
2023/08/27 11:18:58;;;;;;;1.45;0.90;;;;;;;19.42;72.25;92303.50;2068389;69;20148;-82
2023/08/27 11:21:24;;;;;;;1.85;0.90;;;;;;;19.56;70.14;92294.50;2068590;69;20145;-81
2023/08/27 11:24:26;;;;;;;1.48;0.80;;;;;;;19.41;71.12;92304.19;2068278;69;20128;-82
2023/08/27 11:26:54;;;;;;;1.73;0.82;;;;;;;19.13;72.00;92316.41;2057560;69;20158;-81
2023/08/27 11:29:23;;;;;;;2.30;1.30;;;;;;;19.09;71.94;92324.88;2057625;69;20176;-81
2023/08/27 11:31:48;;;;;;;1.20;0.65;;;;;;;19.00;70.71;92326.09;2057680;69;20149;-82
2023/08/27 11:34:15;;;;;;;2.17;0.75;;;;;;;18.77;72.71;92324.81;2057552;69;20146;-82
2023/08/27 11:36:46;;;;;;;2.97;0.90;;;;;;;17.85;76.42;92324.53;2057184;69;20573;-81
2023/08/27 11:39:12;;;;;;;1.42;0.80;;;;;;;18.01;76.88;92317.16;2057378;69;20149;-81
2023/08/27 11:41:40;;;;;;;3.00;0.68;;;;;;;18.32;76.86;92320.09;2057538;69;20569;-81
2023/08/27 11:44:10;;;;;;;1.10;0.80;;;;;;;18.74;75.06;92332.63;2057425;69;20153;-81
2023/08/27 11:46:36;;;;;;;1.27;0.88;;;;;;;18.93;73.64;92336.63;2057583;69;20203;-81
2023/08/27 11:49:02;;;;;;;1.70;0.70;;;;;;;18.93;73.64;92330.94;2057610;69;20680;-81
2023/08/27 11:51:28;;;;;;;1.08;0.75;;;;;;;18.70;74.25;92341.06;2057467;69;20159;-81
2023/08/27 11:53:54;;;;;;;1.10;0.90;;;;;;;18.92;73.09;92340.16;2057565;69;20153;-81
2023/08/27 11:56:20;;;;;;;2.45;0.82;;;;;;;18.91;73.43;92336.56;2054634;69;20138;-81
2023/08/27 11:58:51;;;;;;;1.42;0.73;;;;;;;18.98;72.07;92343.16;2054610;69;20528;-81
2023/08/27 12:01:19;;;;;;;3.65;0.90;;;;;;;18.99;71.99;92356.72;2065063;69;20160;-81
2023/08/27 12:03:47;;;;;;;3.20;1.00;;;;;;;18.95;71.77;92353.06;2068206;69;20145;-81
2023/08/27 12:06:19;;;;;;;3.05;1.00;;;;;;;19.09;72.11;92349.81;2068212;69;20152;-81
2023/08/27 12:08:51;;;;;;;2.67;0.75;;;;;;;18.33;73.20;92356.47;2068136;69;20156;-80
2023/08/27 12:11:18;;;;;;;1.35;0.88;;;;;;;18.77;71.89;92354.06;2068301;69;20176;-81
2023/08/27 12:13:53;;;;;;;1.95;0.80;;;;;;;18.77;72.56;92361.88;2068220;69;20249;-81
2023/08/27 12:16:28;;;;;;;1.60;1.00;;;;;;;18.19;72.48;92362.50;2068265;69;20145;-81
2023/08/27 12:19:08;;;;;;;3.33;1.20;;;;;;;17.78;75.33;92360.66;2068326;69;20156;-80
2023/08/27 12:21:54;;;;;;;3.22;1.30;;;;;;;17.96;74.92;92368.97;2068224;69;20132;-80
2023/08/27 12:24:29;;;;;;;1.00;0.85;;;;;;;18.10;74.98;92368.63;2068112;69;20181;-80
2023/08/27 12:26:56;;;;;;;1.63;0.90;;;;;;;18.14;74.11;92360.22;2068190;69;20148;-80
2023/08/27 12:29:26;;;;;;;2.38;0.95;;;;;;;18.38;73.69;92357.31;2068366;69;20159;-81
2023/08/27 12:31:53;;;;;;;2.92;1.13;;;;;;;18.38;73.95;92363.00;2068408;69;20224;-80
2023/08/27 12:34:18;;;;;;;2.63;0.88;;;;;;;18.33;73.90;92372.84;2068282;69;20156;-81